createdAt,value
2018-04-25T00:00:29.659Z,2.70
2018-04-25T00:02:57.188Z,3.30
2018-04-25T00:05:24.700Z,3.10
2018-04-25T00:07:53.107Z,3.20
2018-04-25T00:10:20.665Z,3.63
2018-04-25T00:12:48.171Z,3.30
2018-04-25T00:15:16.474Z,3.70
2018-04-25T00:17:44.747Z,3.13
2018-04-25T00:20:13.056Z,2.73
2018-04-25T00:22:40.565Z,3.00
2018-04-25T00:25:08.889Z,3.33
2018-04-25T00:27:36.400Z,3.10
2018-04-25T00:30:03.942Z,3.90
2018-04-25T00:32:31.466Z,3.57
2018-04-25T00:34:59.001Z,4.00
2018-04-25T00:37:27.276Z,3.40
2018-04-25T00:39:55.574Z,3.37
2018-04-25T00:42:23.083Z,4.00
2018-04-25T00:44:50.710Z,3.43
2018-04-25T00:47:18.224Z,3.63
2018-04-25T00:49:46.529Z,4.10
2018-04-25T00:52:14.112Z,3.77
2018-04-25T00:54:41.668Z,3.80
2018-04-25T00:57:09.219Z,3.77
2018-04-25T00:59:36.764Z,3.00
2018-04-25T01:02:04.348Z,2.90
2018-04-25T01:04:31.868Z,3.03
2018-04-25T01:07:00.160Z,2.90
2018-04-25T01:09:27.676Z,2.93
2018-04-25T01:11:55.320Z,3.43
2018-04-25T01:14:22.744Z,3.40
2018-04-25T01:16:50.277Z,3.30
2018-04-25T01:19:18.562Z,3.77
2018-04-25T01:21:47.672Z,4.27
2018-04-25T01:24:15.187Z,3.80
2018-04-25T01:26:42.726Z,3.30
2018-04-25T01:29:10.240Z,3.03
2018-04-25T01:31:47.107Z,2.90
2018-04-25T01:34:19.017Z,4.00
2018-04-25T01:39:41.775Z,4.73
2018-04-25T01:42:28.828Z,3.70
2018-04-25T01:44:58.301Z,4.40
2018-04-25T01:47:34.884Z,3.37
2018-04-25T01:53:11.529Z,3.67
2018-04-25T01:55:51.732Z,3.50
2018-04-25T01:58:31.104Z,3.97
2018-04-25T02:01:10.613Z,3.80
2018-04-25T02:03:59.702Z,4.10
2018-04-25T02:06:27.217Z,3.60
2018-04-25T02:08:54.756Z,4.03
2018-04-25T02:11:23.037Z,2.90
2018-04-25T02:13:51.365Z,3.77
2018-04-25T02:16:18.904Z,3.87
2018-04-25T02:18:46.437Z,4.10
2018-04-25T02:21:14.716Z,3.73
2018-04-25T02:23:43.121Z,4.30
2018-04-25T02:26:10.640Z,4.30
2018-04-25T02:28:38.940Z,3.87
2018-04-25T02:31:06.460Z,4.50
2018-04-25T02:33:33.992Z,3.80
2018-04-25T02:36:01.541Z,4.00
2018-04-25T02:38:29.079Z,4.37
2018-04-25T02:40:56.720Z,3.73
2018-04-25T02:43:25.000Z,3.70
2018-04-25T02:45:53.300Z,3.10
2018-04-25T02:48:20.815Z,4.13
2018-04-25T02:50:48.351Z,5.17
2018-04-25T02:53:15.897Z,4.43
2018-04-25T02:55:43.430Z,5.43
2018-04-25T02:58:10.943Z,4.50
2018-04-25T03:00:38.487Z,4.03
2018-04-25T03:03:06.037Z,4.20
2018-04-25T03:05:33.573Z,3.73
2018-04-25T03:08:01.091Z,4.17
2018-04-25T03:10:28.643Z,5.67
2018-04-25T03:12:56.166Z,5.80
2018-04-25T03:15:23.695Z,4.50
2018-04-25T03:17:52.011Z,4.80
2018-04-25T03:20:19.544Z,3.13
2018-04-25T03:22:47.059Z,4.00
2018-04-25T03:25:14.596Z,3.93
2018-04-25T03:27:42.103Z,3.90
2018-04-25T03:30:10.380Z,4.30
2018-04-25T03:32:37.908Z,4.70
2018-04-25T03:35:05.414Z,4.93
2018-04-25T03:37:33.713Z,4.47
2018-04-25T03:40:01.233Z,3.90
2018-04-25T03:42:28.776Z,4.03
2018-04-25T03:44:56.292Z,3.63
2018-04-25T03:47:23.826Z,3.97
2018-04-25T03:49:52.105Z,3.93
2018-04-25T03:52:20.403Z,4.40
2018-04-25T03:54:47.926Z,3.83
2018-04-25T03:57:16.960Z,3.83
2018-04-25T03:59:44.477Z,4.80
2018-04-25T04:02:12.089Z,5.90
2018-04-25T04:04:39.657Z,4.20
2018-04-25T04:07:07.187Z,4.47
2018-04-25T04:09:35.468Z,4.77
2018-04-25T04:12:03.768Z,5.07
2018-04-25T04:14:31.329Z,4.67
2018-04-25T04:16:58.886Z,4.40
2018-04-25T04:19:26.454Z,5.50
2018-04-25T04:21:54.113Z,4.53
2018-04-25T04:24:21.628Z,5.27
2018-04-25T04:26:49.908Z,5.40
2018-04-25T04:29:18.213Z,6.97
2018-04-25T04:31:45.731Z,5.40
2018-04-25T04:34:14.032Z,4.63
2018-04-25T04:36:42.316Z,4.77
2018-04-25T04:39:10.615Z,5.63
2018-04-25T04:41:38.181Z,5.27
2018-04-25T04:44:05.747Z,5.27
2018-04-25T04:46:33.305Z,5.30
2018-04-25T04:49:00.836Z,5.87
2018-04-25T04:51:29.136Z,5.30
2018-04-25T04:53:56.672Z,4.87
2018-04-25T04:56:24.949Z,4.80
2018-04-25T04:58:53.249Z,3.77
2018-04-25T05:01:20.819Z,4.67
2018-04-25T05:03:48.362Z,4.80
2018-04-25T05:06:15.876Z,5.17
2018-04-25T05:08:43.504Z,5.33
2018-04-25T05:11:10.961Z,4.70
2018-04-25T05:13:38.491Z,4.43
2018-04-25T05:16:06.020Z,3.27
2018-04-25T05:18:33.556Z,3.40
2018-04-25T05:21:01.071Z,4.33
2018-04-25T05:23:29.371Z,3.73
2018-04-25T05:25:56.882Z,4.40
2018-04-25T05:28:24.415Z,4.07
2018-04-25T05:30:51.937Z,3.70
2018-04-25T05:33:19.454Z,4.10
2018-04-25T05:35:46.985Z,4.47
2018-04-25T05:38:14.493Z,3.27
2018-04-25T05:40:42.796Z,4.30
2018-04-25T05:43:10.308Z,5.10
2018-04-25T05:45:37.840Z,5.73
2018-04-25T05:48:05.353Z,5.20
2018-04-25T05:50:33.651Z,5.10
2018-04-25T05:53:01.167Z,4.93
2018-04-25T05:55:28.700Z,5.23
2018-04-25T05:57:56.307Z,4.87
2018-04-25T06:00:23.784Z,5.10
2018-04-25T06:02:51.296Z,5.17
2018-04-25T06:05:18.840Z,5.07
2018-04-25T06:07:46.352Z,5.50
2018-04-25T06:10:14.647Z,5.70
2018-04-25T06:12:42.160Z,5.30
2018-04-25T06:15:09.696Z,5.70
2018-04-25T06:17:37.212Z,4.90
2018-04-25T06:20:05.620Z,5.67
2018-04-25T06:22:33.136Z,5.73
2018-04-25T06:25:01.433Z,6.00
2018-04-25T06:27:28.953Z,5.70
2018-04-25T06:29:58.000Z,5.83
2018-04-25T06:32:25.512Z,5.97
2018-04-25T06:34:53.029Z,6.97
2018-04-25T06:37:20.568Z,5.30
2018-04-25T06:39:48.148Z,5.73
2018-04-25T06:42:15.681Z,5.23
2018-04-25T06:44:44.041Z,4.47
2018-04-25T06:47:11.544Z,5.30
2018-04-25T06:49:39.065Z,4.60
2018-04-25T06:52:07.364Z,4.90
2018-04-25T06:54:34.880Z,5.83
2018-04-25T06:57:02.417Z,6.17
2018-04-25T06:59:29.964Z,5.50
2018-04-25T07:01:57.500Z,4.70
2018-04-25T07:04:25.016Z,5.30
2018-04-25T07:06:52.556Z,6.20
2018-04-25T07:09:20.072Z,4.83
2018-04-25T07:11:48.443Z,5.47
2018-04-25T07:14:16.732Z,5.53
2018-04-25T07:16:45.129Z,5.20
2018-04-25T07:19:12.697Z,6.00
2018-04-25T07:21:40.256Z,5.30
2018-04-25T07:24:07.820Z,4.20
2018-04-25T07:26:35.335Z,5.27
2018-04-25T07:29:02.868Z,5.40
2018-04-25T07:31:30.380Z,5.30
2018-04-25T07:33:57.912Z,5.97
2018-04-25T07:36:25.520Z,5.57
2018-04-25T07:38:53.085Z,5.20
2018-04-25T07:41:20.603Z,4.87
2018-04-25T07:43:48.912Z,5.80
2018-04-25T07:46:16.428Z,6.17
2018-04-25T07:48:44.036Z,5.30
2018-04-25T07:51:11.558Z,4.93
2018-04-25T07:53:39.168Z,5.50
2018-04-25T07:56:06.688Z,5.50
2018-04-25T07:58:34.984Z,4.93
2018-04-25T08:01:02.501Z,4.93
2018-04-25T08:03:30.035Z,5.90
2018-04-25T08:05:57.623Z,5.43
2018-04-25T08:08:25.105Z,6.13
2018-04-25T08:10:53.383Z,5.30
2018-04-25T08:13:33.643Z,6.30
2018-04-25T08:16:13.814Z,6.00
2018-04-25T08:21:41.728Z,7.00
2018-04-25T08:24:09.262Z,6.43
2018-04-25T08:26:36.838Z,7.80
2018-04-25T08:29:04.367Z,7.47
2018-04-25T08:31:32.682Z,7.20
2018-04-25T08:34:00.219Z,6.43
2018-04-25T08:36:27.739Z,7.23
2018-04-25T08:38:55.362Z,6.00
2018-04-25T08:41:22.872Z,6.90
2018-04-25T08:43:50.409Z,8.63
2018-04-25T08:46:17.924Z,7.33
2018-04-25T08:48:45.444Z,7.07
2018-04-25T08:51:13.749Z,6.20
2018-04-25T08:53:42.032Z,5.97
2018-04-25T08:56:10.328Z,5.80
2018-04-25T08:58:37.845Z,6.00
2018-04-25T09:01:05.447Z,5.70
2018-04-25T09:03:32.955Z,5.60
2018-04-25T09:06:00.491Z,7.27
2018-04-25T09:08:28.008Z,6.13
2018-04-25T09:10:55.589Z,7.60
2018-04-25T09:13:23.105Z,6.63
2018-04-25T09:15:50.713Z,6.30
2018-04-25T09:18:18.229Z,6.40
2018-04-25T09:20:46.532Z,5.90
2018-04-25T09:23:14.044Z,5.90
2018-04-25T09:25:41.576Z,7.20
2018-04-25T09:28:09.126Z,5.90
2018-04-25T09:30:36.675Z,6.53
2018-04-25T09:33:04.196Z,6.90
2018-04-25T09:35:31.732Z,7.37
2018-04-25T09:37:59.248Z,5.87
2018-04-25T09:40:26.797Z,6.50
2018-04-25T09:42:55.076Z,6.33
2018-04-25T09:45:23.358Z,7.80
2018-04-25T09:47:51.768Z,7.77
2018-04-25T09:50:19.287Z,7.23
2018-04-25T09:52:47.590Z,7.70
2018-04-25T09:55:15.104Z,5.73
2018-04-25T09:57:42.810Z,7.00
2018-04-25T10:00:10.255Z,8.40
2018-04-25T10:02:38.557Z,5.83
2018-04-25T10:05:06.069Z,5.50
2018-04-25T10:07:33.600Z,6.70
2018-04-25T10:10:01.121Z,7.00
2018-04-25T10:12:28.662Z,6.97
2018-04-25T10:14:56.945Z,7.20
2018-04-25T10:17:25.291Z,7.70
2018-04-25T10:19:52.784Z,7.43
2018-04-25T10:22:21.195Z,6.97
2018-04-25T10:24:48.711Z,7.40
2018-04-25T10:27:17.011Z,7.60
2018-04-25T10:29:44.589Z,7.23
2018-04-25T10:32:12.128Z,7.03
2018-04-25T10:34:39.644Z,7.00
2018-04-25T10:37:07.176Z,6.40
2018-04-25T10:39:34.687Z,5.70
2018-04-25T10:42:02.225Z,6.73
2018-04-25T10:44:29.741Z,5.90
2018-04-25T10:46:57.291Z,6.23
2018-04-25T10:49:24.807Z,7.63
2018-04-25T10:51:52.315Z,6.00
2018-04-25T10:54:19.847Z,5.17
2018-04-25T10:56:48.127Z,4.90
2018-04-25T10:59:16.424Z,5.87
2018-04-25T11:01:43.943Z,5.50
2018-04-25T11:04:11.560Z,5.50
2018-04-25T11:06:39.080Z,6.43
2018-04-25T11:09:07.396Z,5.57
2018-04-25T11:11:34.959Z,5.13
2018-04-25T11:14:02.488Z,5.33
2018-04-25T11:16:30.767Z,4.93
2018-04-25T11:18:59.076Z,5.17
2018-04-25T11:21:26.633Z,4.63
2018-04-25T11:23:54.164Z,5.50
2018-04-25T11:26:22.448Z,4.93
2018-04-25T11:28:50.768Z,4.80
2018-04-25T11:31:18.276Z,5.33
2018-04-25T11:33:46.585Z,5.87
2018-04-25T11:36:14.120Z,5.77
2018-04-25T11:38:42.421Z,4.80
2018-04-25T11:41:09.952Z,5.10
2018-04-25T11:43:38.232Z,6.00
2018-04-25T11:46:06.532Z,6.50
2018-04-25T11:48:34.051Z,5.70
2018-04-25T11:51:01.585Z,5.17
2018-04-25T11:53:29.099Z,5.93
2018-04-25T11:55:56.636Z,5.03
2018-04-25T11:58:24.931Z,6.00
2018-04-25T12:00:52.471Z,5.77
2018-04-25T12:03:19.985Z,5.33
2018-04-25T12:05:47.538Z,5.40
2018-04-25T12:08:15.052Z,5.50
2018-04-25T12:10:43.347Z,5.70
2018-04-25T12:13:11.634Z,6.03
2018-04-25T12:15:39.208Z,5.53
2018-04-25T12:18:06.738Z,6.27
2018-04-25T12:20:35.040Z,5.80
2018-04-25T12:23:02.560Z,6.43
2018-04-25T12:25:30.887Z,8.27
2018-04-25T12:27:58.444Z,6.43
2018-04-25T12:30:25.967Z,6.60
2018-04-25T12:32:54.263Z,6.17
2018-04-25T12:35:21.795Z,6.07
2018-04-25T12:37:50.121Z,7.90
2018-04-25T12:40:17.688Z,6.47
2018-04-25T12:42:45.229Z,7.70
2018-04-25T12:45:12.751Z,6.67
2018-04-25T12:47:40.284Z,7.17
2018-04-25T12:50:07.800Z,6.43
2018-04-25T12:52:35.381Z,7.60
2018-04-25T12:55:02.899Z,6.60
2018-04-25T12:57:31.211Z,6.03
2018-04-25T12:59:58.777Z,6.37
2018-04-25T13:02:26.332Z,6.67
2018-04-25T13:04:53.905Z,7.10
2018-04-25T13:07:21.440Z,6.90
2018-04-25T13:09:48.952Z,7.27
2018-04-25T13:12:16.489Z,5.87
2018-04-25T13:14:44.038Z,5.80
2018-04-25T13:17:11.592Z,6.40
2018-04-25T13:19:39.107Z,7.17
2018-04-25T13:22:06.724Z,6.73
2018-04-25T13:24:34.277Z,6.47
2018-04-25T13:27:01.784Z,7.10
2018-04-25T13:29:29.324Z,7.67
2018-04-25T13:31:56.860Z,6.70
2018-04-25T13:34:24.415Z,6.50
2018-04-25T13:36:51.932Z,7.77
2018-04-25T13:39:19.473Z,7.30
2018-04-25T13:41:46.982Z,6.37
2018-04-25T13:44:14.520Z,7.63
2018-04-25T13:46:42.824Z,6.80
2018-04-25T13:49:10.342Z,7.20
2018-04-25T13:51:37.953Z,6.40
2018-04-25T13:54:05.484Z,4.40
2018-04-25T13:56:33.792Z,4.50
2018-04-25T13:59:01.327Z,4.93
2018-04-25T14:01:29.607Z,4.53
2018-04-25T14:03:57.908Z,3.50
2018-04-25T14:06:25.420Z,3.70
2018-04-25T14:08:52.948Z,4.07
2018-04-25T14:11:20.467Z,3.90
2018-04-25T14:13:48.041Z,3.40
2018-04-25T14:16:15.572Z,3.67
2018-04-25T14:18:43.852Z,3.70
2018-04-25T14:21:12.167Z,3.23
2018-04-25T14:23:39.721Z,3.00
2018-04-25T14:26:07.254Z,3.53
2018-04-25T14:28:35.534Z,3.17
2018-04-25T14:31:03.941Z,3.53
2018-04-25T14:33:31.499Z,3.87
2018-04-25T14:35:59.768Z,2.03
2018-04-25T14:38:27.331Z,2.50
2018-04-25T14:40:54.900Z,1.53
2018-04-25T14:43:22.466Z,2.27
2018-04-25T14:45:49.995Z,2.40
2018-04-25T14:48:18.339Z,1.77
2018-04-25T14:50:45.826Z,2.70
2018-04-25T14:53:14.103Z,2.63
2018-04-25T14:55:42.396Z,2.40
2018-04-25T14:58:09.973Z,2.70
2018-04-25T15:00:37.532Z,2.80
2018-04-25T15:03:05.044Z,1.90
2018-04-25T15:05:32.583Z,2.30
2018-04-25T15:08:00.104Z,2.93
2018-04-25T15:10:27.671Z,2.07
2018-04-25T15:12:55.203Z,2.33
2018-04-25T15:15:23.500Z,2.60
2018-04-25T15:17:51.020Z,2.57
2018-04-25T15:20:18.633Z,2.40
2018-04-25T15:22:46.159Z,2.43
2018-04-25T15:25:14.442Z,2.30
2018-04-25T15:27:41.993Z,2.50
2018-04-25T15:30:10.310Z,3.00
2018-04-25T15:32:37.845Z,2.30
2018-04-25T15:35:05.360Z,2.20
2018-04-25T15:37:32.891Z,3.20
2018-04-25T15:40:00.404Z,2.10
2018-04-25T15:42:28.706Z,2.10
2018-04-25T15:44:56.223Z,2.40
2018-04-25T15:47:24.564Z,2.20
2018-04-25T15:49:52.120Z,2.40
2018-04-25T15:52:19.670Z,2.30
2018-04-25T15:54:47.191Z,2.43
2018-04-25T15:57:14.720Z,2.77
2018-04-25T15:59:42.248Z,2.30
2018-04-25T16:02:09.760Z,2.33
2018-04-25T16:04:37.292Z,2.30
2018-04-25T16:07:04.843Z,2.50
2018-04-25T16:09:32.371Z,2.20
2018-04-25T16:12:00.670Z,2.30
2018-04-25T16:14:28.216Z,2.20
2018-04-25T16:16:55.796Z,1.90
2018-04-25T16:19:23.332Z,2.63
2018-04-25T16:21:51.646Z,2.57
2018-04-25T16:24:19.185Z,3.07
2018-04-25T16:26:46.703Z,3.00
2018-04-25T16:29:14.326Z,2.80
2018-04-25T16:31:41.837Z,2.20
2018-04-25T16:34:09.440Z,2.57
2018-04-25T16:36:36.966Z,2.20
2018-04-25T16:39:05.267Z,2.13
2018-04-25T16:41:32.779Z,1.83
2018-04-25T16:44:00.400Z,2.03
2018-04-25T16:46:27.915Z,2.20
2018-04-25T16:48:55.454Z,1.90
2018-04-25T16:51:22.970Z,2.20
2018-04-25T16:53:50.546Z,2.00
2018-04-25T16:56:18.096Z,2.60
2018-04-25T16:58:45.639Z,2.50
2018-04-25T17:01:13.156Z,1.53
2018-04-25T17:03:41.440Z,1.90
2018-04-25T17:06:08.976Z,2.40
2018-04-25T17:08:36.517Z,2.37
2018-04-25T17:11:04.056Z,1.80
2018-04-25T17:13:31.897Z,2.80
2018-04-25T17:15:59.433Z,2.00
2018-04-25T17:18:28.287Z,2.10
2018-04-25T17:20:55.953Z,1.70
2018-04-25T17:23:23.512Z,2.00
2018-04-25T17:25:51.079Z,2.00
2018-04-25T17:28:18.587Z,2.40
2018-04-25T17:30:46.120Z,2.47
2018-04-25T17:33:13.632Z,2.33
2018-04-25T17:35:41.928Z,2.53
2018-04-25T17:38:09.492Z,2.40
2018-04-25T17:40:37.049Z,2.10
2018-04-25T17:43:04.565Z,2.70
2018-04-25T17:45:32.104Z,3.20
2018-04-25T17:47:59.631Z,2.13
2018-04-25T17:50:27.167Z,2.53
2018-04-25T17:52:55.448Z,2.80
2018-04-25T17:55:22.987Z,2.40
2018-04-25T17:57:51.313Z,2.40
2018-04-25T18:00:18.843Z,3.37
2018-04-25T18:02:46.384Z,2.60
2018-04-25T18:05:14.659Z,1.90
2018-04-25T18:07:42.955Z,1.70
2018-04-25T18:10:11.257Z,2.20
2018-04-25T18:12:38.798Z,2.50
2018-04-25T18:15:06.317Z,2.10
2018-04-25T18:17:35.366Z,2.43
2018-04-25T18:20:02.879Z,2.50
2018-04-25T18:22:30.407Z,2.20
2018-04-25T18:24:57.915Z,1.83
2018-04-25T18:27:26.229Z,2.73
2018-04-25T18:29:53.789Z,2.97
2018-04-25T18:32:21.320Z,3.70
2018-04-25T18:34:49.603Z,2.33
2018-04-25T18:37:17.206Z,2.90
2018-04-25T18:39:44.747Z,2.60
2018-04-25T18:42:12.280Z,2.60
2018-04-25T18:44:40.564Z,2.23
2018-04-25T18:47:08.969Z,2.70
2018-04-25T18:49:36.527Z,3.90
2018-04-25T18:52:04.064Z,3.87
2018-04-25T18:54:31.572Z,3.43
2018-04-25T18:56:59.130Z,3.93
2018-04-25T18:59:26.645Z,3.27
2018-04-25T19:01:54.166Z,3.87
2018-04-25T19:04:21.705Z,3.90
2018-04-25T19:06:49.220Z,3.90
2018-04-25T19:09:17.518Z,4.03
2018-04-25T19:11:45.036Z,3.67
2018-04-25T19:14:12.646Z,4.77
2018-04-25T19:16:40.160Z,4.80
2018-04-25T19:19:08.476Z,5.80
2018-04-25T19:21:35.990Z,4.90
2018-04-25T19:24:04.292Z,5.47
2018-04-25T19:26:31.808Z,4.63
2018-04-25T19:28:59.344Z,5.07
2018-04-25T19:31:26.860Z,5.43
2018-04-25T19:33:55.172Z,5.20
2018-04-25T19:36:22.688Z,4.67
2018-04-25T19:38:50.987Z,6.20
2018-04-25T19:41:18.504Z,4.60
2018-04-25T19:43:46.037Z,5.30
2018-04-25T19:46:13.554Z,5.83
2018-04-25T19:48:41.861Z,4.30
2018-04-25T19:51:09.376Z,4.43
2018-04-25T19:53:36.887Z,4.50
2018-04-25T19:56:04.528Z,4.13
2018-04-25T19:58:32.110Z,4.73
2018-04-25T20:00:59.666Z,4.20
2018-04-25T20:03:27.191Z,4.70
2018-04-25T20:05:55.485Z,4.30
2018-04-25T20:08:23.117Z,4.60
2018-04-25T20:10:50.615Z,5.13
2018-04-25T20:13:18.131Z,5.00
2018-04-25T20:15:45.664Z,5.03
2018-04-25T20:18:13.173Z,3.80
2018-04-25T20:20:41.480Z,4.80
2018-04-25T20:23:09.040Z,5.00
2018-04-25T20:25:36.572Z,4.47
2018-04-25T20:28:04.852Z,4.50
2018-04-25T20:30:33.156Z,4.27
2018-04-25T20:33:00.716Z,4.17
2018-04-25T20:35:28.253Z,4.17
2018-04-25T20:37:56.559Z,4.50
2018-04-25T20:40:24.091Z,4.43
2018-04-25T20:42:52.372Z,4.20
2018-04-25T20:45:19.904Z,4.00
2018-04-25T20:47:47.423Z,5.07
2018-04-25T20:50:15.019Z,5.30
2018-04-25T20:52:42.532Z,5.07
2018-04-25T20:55:10.089Z,4.70
2018-04-25T20:57:37.604Z,4.20
2018-04-25T21:00:05.119Z,4.00
2018-04-25T21:02:32.759Z,3.73
2018-04-25T21:05:00.188Z,3.70
2018-04-25T21:07:28.495Z,4.77
2018-04-25T21:09:56.014Z,4.97
2018-04-25T21:12:24.330Z,4.20
2018-04-25T21:14:51.910Z,4.50
2018-04-25T21:17:19.462Z,4.13
2018-04-25T21:19:46.973Z,4.07
2018-04-25T21:22:14.508Z,4.30
2018-04-25T21:24:42.032Z,5.00
2018-04-25T21:27:09.568Z,4.00
2018-04-25T21:29:37.843Z,4.60
2018-04-25T21:32:06.137Z,4.40
2018-04-25T21:34:33.659Z,4.50
2018-04-25T21:37:01.996Z,5.20
2018-04-25T21:39:29.512Z,5.00
2018-04-25T21:41:57.820Z,4.80
2018-04-25T21:44:25.336Z,4.90
2018-04-25T21:46:53.642Z,6.00
2018-04-25T21:49:21.920Z,4.50
2018-04-25T21:51:50.224Z,5.47
2018-04-25T21:54:17.758Z,5.30
2018-04-25T21:56:46.036Z,5.70
2018-04-25T21:59:14.339Z,6.50
2018-04-25T22:01:41.857Z,5.43
2018-04-25T22:04:10.157Z,7.00
2018-04-25T22:06:37.747Z,6.00
2018-04-25T22:09:05.285Z,6.90
2018-04-25T22:11:32.863Z,7.10
2018-04-25T22:14:00.398Z,7.63
2018-04-25T22:16:27.989Z,7.40
2018-04-25T22:18:55.523Z,7.60
2018-04-25T22:21:23.050Z,10.30
2018-04-25T22:23:50.587Z,8.40
2018-04-25T22:26:18.096Z,6.90
2018-04-25T22:28:46.387Z,7.80
2018-04-25T22:31:13.957Z,7.57
2018-04-25T22:33:41.494Z,6.50
2018-04-25T22:36:09.016Z,6.20
2018-04-25T22:38:36.553Z,6.90
2018-04-25T22:41:04.076Z,7.93
2018-04-25T22:43:31.609Z,7.67
2018-04-25T22:45:59.133Z,7.00
2018-04-25T22:48:26.759Z,7.00
2018-04-25T22:50:54.281Z,6.83
2018-04-25T22:53:23.320Z,8.47
2018-04-25T22:55:50.836Z,8.13
2018-04-25T22:58:18.373Z,7.63
2018-04-25T23:00:45.886Z,8.10
2018-04-25T23:03:13.419Z,7.80
2018-04-25T23:05:40.932Z,9.10
2018-04-25T23:08:08.482Z,9.17
2018-04-25T23:10:36.005Z,7.27
2018-04-25T23:13:04.328Z,6.93
2018-04-25T23:15:31.840Z,7.13
2018-04-25T23:17:59.355Z,7.80
2018-04-25T23:20:26.904Z,8.70
2018-04-25T23:22:54.418Z,9.97
2018-04-25T23:25:22.719Z,7.90
2018-04-25T23:27:50.310Z,8.70
2018-04-25T23:30:17.847Z,7.30
2018-04-25T23:32:45.415Z,8.37
2018-04-25T23:35:12.956Z,8.40
2018-04-25T23:37:41.240Z,8.37
2018-04-25T23:40:08.771Z,8.47
2018-04-25T23:42:36.289Z,9.17
2018-04-25T23:45:03.841Z,8.40
2018-04-25T23:47:31.398Z,8.60
2018-04-25T23:49:58.937Z,7.97
2018-04-25T23:52:26.457Z,8.47
2018-04-25T23:54:53.993Z,8.10
2018-04-25T23:57:21.532Z,8.07
2018-04-25T23:59:49.068Z,8.60
